createdAt,value
2024-02-09T00:02:22.468Z,73.42
2024-02-09T00:04:53.284Z,73.42
2024-02-09T00:07:27.015Z,73.71
2024-02-09T00:09:57.739Z,73.90
2024-02-09T00:12:28.455Z,73.76
2024-02-09T00:15:00.954Z,73.81
2024-02-09T00:17:34.959Z,73.89
2024-02-09T00:20:09.224Z,73.96
2024-02-09T00:22:40.679Z,73.95
2024-02-09T00:25:12.776Z,73.43
2024-02-09T00:27:44.857Z,73.40
2024-02-09T00:30:15.853Z,73.35
2024-02-09T00:32:49.252Z,73.82
2024-02-09T00:35:21.671Z,73.70
2024-02-09T00:37:57.171Z,73.35
2024-02-09T00:40:33.125Z,73.35
2024-02-09T00:43:05.463Z,73.48
2024-02-09T00:45:38.139Z,73.50
2024-02-09T00:48:11.915Z,73.35
2024-02-09T00:50:42.530Z,73.38
2024-02-09T00:53:13.190Z,73.39
2024-02-09T00:55:44.035Z,73.91
2024-02-09T00:58:15.165Z,73.48
2024-02-09T01:00:45.794Z,73.51
2024-02-09T01:03:21.744Z,73.60
2024-02-09T01:05:52.544Z,74.05
2024-02-09T01:08:24.401Z,73.95
2024-02-09T01:10:56.099Z,73.91
2024-02-09T01:13:39.161Z,73.57
2024-02-09T01:16:22.676Z,73.42
2024-02-09T01:19:09.409Z,73.41
2024-02-09T01:21:52.359Z,73.76
2024-02-09T01:24:35.333Z,73.69
2024-02-09T01:27:18.321Z,73.45
2024-02-09T01:30:01.336Z,73.61
2024-02-09T01:32:46.705Z,73.42
2024-02-09T01:35:32.365Z,73.50
2024-02-09T01:38:15.435Z,74.04
2024-02-09T01:40:58.445Z,73.71
2024-02-09T01:43:41.483Z,73.67
2024-02-09T01:46:25.555Z,73.76
2024-02-09T01:49:08.803Z,72.95
2024-02-09T01:51:55.054Z,73.37
2024-02-09T01:54:38.649Z,73.16
2024-02-09T01:57:24.119Z,73.81
2024-02-09T02:00:10.185Z,74.18
2024-02-09T02:02:58.860Z,74.87
2024-02-09T02:05:42.487Z,74.80
2024-02-09T02:08:29.476Z,74.42
2024-02-09T02:11:12.264Z,74.56
2024-02-09T02:13:55.269Z,74.04
2024-02-09T02:16:38.579Z,73.81
2024-02-09T02:19:21.882Z,74.52
2024-02-09T02:22:14.042Z,74.23
2024-02-09T02:25:05.988Z,74.14
2024-02-09T02:27:55.216Z,74.34
2024-02-09T02:30:38.211Z,74.07
2024-02-09T02:33:21.563Z,74.19
2024-02-09T02:36:04.570Z,74.33
2024-02-09T02:38:47.618Z,74.02
2024-02-09T02:41:18.013Z,73.68
2024-02-09T02:43:46.268Z,74.17
2024-02-09T02:46:20.048Z,74.60
2024-02-09T02:49:04.082Z,74.72
2024-02-09T02:51:47.318Z,74.71
2024-02-09T02:54:32.281Z,74.82
2024-02-09T02:57:18.965Z,73.77
2024-02-09T03:00:04.647Z,73.19
2024-02-09T03:02:48.191Z,73.57
2024-02-09T03:05:21.722Z,74.46
2024-02-09T03:08:43.096Z,74.39
2024-02-09T03:10:45.249Z,74.88
2024-02-09T03:13:18.551Z,75.43
2024-02-09T03:15:49.540Z,74.63
2024-02-09T03:18:23.030Z,74.35
2024-02-09T03:20:56.840Z,74.37
2024-02-09T03:23:27.708Z,74.23
2024-02-09T03:25:58.390Z,74.07
2024-02-09T03:28:31.696Z,74.14
2024-02-09T03:31:03.664Z,74.01
2024-02-09T03:33:34.318Z,73.63
2024-02-09T03:36:06.715Z,74.33
2024-02-09T03:38:37.365Z,74.96
2024-02-09T03:41:09.005Z,75.04
2024-02-09T03:43:42.352Z,74.98
2024-02-09T03:46:13.927Z,74.77
2024-02-09T03:48:44.604Z,74.70
2024-02-09T03:51:15.351Z,74.48
2024-02-09T03:53:46.019Z,74.45
2024-02-09T03:56:16.900Z,74.62
2024-02-09T03:58:50.184Z,74.44
2024-02-09T04:01:21.139Z,74.72
2024-02-09T04:03:51.931Z,74.48
2024-02-09T04:06:26.055Z,74.36
2024-02-09T04:08:57.735Z,75.10
2024-02-09T04:11:30.203Z,74.86
2024-02-09T04:14:03.508Z,74.77
2024-02-09T04:16:34.180Z,74.45
2024-02-09T04:19:05.215Z,74.93
2024-02-09T04:21:35.891Z,75.32
2024-02-09T04:24:06.939Z,75.36
2024-02-09T04:26:38.349Z,74.94
2024-02-09T04:29:11.627Z,73.96
2024-02-09T04:31:43.607Z,73.55
2024-02-09T04:34:15.518Z,73.62
2024-02-09T04:36:47.687Z,73.53
2024-02-09T04:39:20.542Z,73.85
2024-02-09T04:41:54.092Z,73.77
2024-02-09T04:44:27.642Z,74.26
2024-02-09T04:46:58.493Z,73.96
2024-02-09T04:49:29.412Z,73.87
2024-02-09T04:52:00.260Z,74.10
2024-02-09T04:54:31.332Z,73.85
2024-02-09T04:57:01.985Z,73.83
2024-02-09T04:59:35.236Z,74.28
2024-02-09T05:02:06.040Z,74.11
2024-02-09T05:04:36.846Z,74.71
2024-02-09T05:07:08.041Z,75.06
2024-02-09T05:09:39.191Z,75.18
2024-02-09T05:12:11.059Z,75.41
2024-02-09T05:14:45.278Z,74.93
2024-02-09T05:17:16.031Z,75.69
2024-02-09T05:19:46.907Z,75.63
2024-02-09T05:22:17.676Z,75.75
2024-02-09T05:24:48.869Z,75.59
2024-02-09T05:27:19.766Z,76.24
2024-02-09T05:29:53.933Z,76.15
2024-02-09T05:32:26.484Z,76.40
2024-02-09T05:34:59.245Z,76.23
2024-02-09T05:37:30.176Z,75.96
2024-02-09T05:40:02.637Z,75.57
2024-02-09T05:42:35.225Z,75.65
2024-02-09T05:45:09.160Z,75.09
2024-02-09T05:47:39.998Z,75.31
2024-02-09T05:50:13.655Z,75.38
2024-02-09T05:52:46.910Z,75.11
2024-02-09T05:55:17.705Z,76.07
2024-02-09T05:57:49.322Z,76.13
2024-02-09T06:00:23.388Z,76.09
2024-02-09T06:02:55.025Z,75.70
2024-02-09T06:05:25.979Z,75.82
2024-02-09T06:07:56.757Z,75.66
2024-02-09T06:10:27.474Z,75.43
2024-02-09T06:12:58.386Z,75.33
2024-02-09T06:15:31.799Z,75.77
2024-02-09T06:18:04.032Z,75.77
2024-02-09T06:20:35.253Z,75.46
2024-02-09T06:23:06.360Z,75.42
2024-02-09T06:25:38.040Z,75.32
2024-02-09T06:28:08.967Z,74.85
2024-02-09T06:30:42.353Z,74.21
2024-02-09T06:33:13.317Z,74.25
2024-02-09T06:35:44.069Z,73.89
2024-02-09T06:38:15.507Z,73.83
2024-02-09T06:40:46.195Z,73.92
2024-02-09T06:43:19.729Z,73.77
2024-02-09T06:45:53.254Z,72.38
2024-02-09T06:48:26.008Z,71.99
2024-02-09T06:50:57.982Z,71.75
2024-02-09T06:53:28.616Z,71.68
2024-02-09T06:56:01.772Z,71.05
2024-02-09T06:58:32.527Z,70.42
2024-02-09T07:01:11.297Z,69.08
2024-02-09T07:03:42.033Z,68.77
2024-02-09T07:06:12.808Z,68.41
2024-02-09T07:08:52.035Z,66.82
2024-02-09T07:11:22.849Z,66.62
2024-02-09T07:13:53.530Z,66.50
2024-02-09T07:16:26.847Z,65.83
2024-02-09T07:18:57.598Z,64.77
2024-02-09T07:21:28.316Z,64.60
2024-02-09T07:24:03.338Z,62.25
2024-02-09T07:26:36.675Z,62.43
2024-02-09T07:29:07.432Z,61.97
2024-02-09T07:31:40.832Z,61.03
2024-02-09T07:34:13.787Z,59.42
2024-02-09T07:36:45.594Z,56.83
2024-02-09T07:39:16.247Z,56.98
2024-02-09T07:41:47.038Z,55.94
2024-02-09T07:44:17.919Z,55.02
2024-02-09T07:46:51.254Z,54.07
2024-02-09T07:49:22.319Z,54.29
2024-02-09T07:51:53.092Z,53.57
2024-02-09T07:54:24.638Z,52.68
2024-02-09T07:56:55.267Z,52.59
2024-02-09T07:59:26.018Z,52.27
2024-02-09T08:01:59.983Z,52.03
2024-02-09T08:04:33.552Z,51.90
2024-02-09T08:07:04.423Z,51.70
2024-02-09T08:09:35.176Z,51.27
2024-02-09T08:12:05.861Z,50.86
2024-02-09T08:14:38.435Z,50.34
2024-02-09T08:17:12.610Z,49.47
2024-02-09T08:19:43.367Z,49.08
2024-02-09T08:22:14.236Z,48.73
2024-02-09T08:24:44.924Z,48.71
2024-02-09T08:27:15.646Z,48.46
2024-02-09T08:29:46.280Z,47.27
2024-02-09T08:32:19.487Z,46.24
2024-02-09T08:34:50.222Z,45.93
2024-02-09T08:37:21.117Z,45.26
2024-02-09T08:39:51.846Z,44.68
2024-02-09T08:42:23.120Z,44.80
2024-02-09T08:44:53.872Z,43.97
2024-02-09T08:47:27.274Z,41.71
2024-02-09T08:49:58.152Z,41.28
2024-02-09T08:52:28.886Z,40.26
2024-02-09T08:55:01.546Z,38.01
2024-02-09T08:57:35.842Z,37.88
2024-02-09T09:00:08.882Z,36.99
2024-02-09T09:02:42.373Z,35.79
2024-02-09T09:05:13.151Z,35.58
2024-02-09T09:07:43.869Z,33.04
2024-02-09T09:10:14.599Z,34.34
2024-02-09T09:12:45.398Z,33.81
2024-02-09T09:15:17.860Z,34.72
2024-02-09T09:17:53.125Z,34.59
2024-02-09T09:20:23.968Z,33.86
2024-02-09T09:22:56.801Z,33.93
2024-02-09T09:25:27.549Z,33.91
2024-02-09T09:27:58.290Z,35.00
2024-02-09T09:30:30.668Z,35.13
2024-02-09T09:33:05.550Z,35.37
2024-02-09T09:35:36.213Z,36.49
2024-02-09T09:38:08.939Z,36.65
2024-02-09T09:40:43.689Z,37.01
2024-02-09T09:43:18.597Z,37.56
2024-02-09T09:45:58.018Z,38.01
2024-02-09T09:48:31.479Z,37.80
2024-02-09T09:51:03.754Z,37.87
2024-02-09T09:53:41.865Z,37.90
2024-02-09T09:56:13.451Z,38.07
2024-02-09T09:58:44.730Z,38.49
2024-02-09T10:01:18.081Z,38.69
2024-02-09T10:03:53.533Z,38.38
2024-02-09T10:06:25.574Z,38.66
2024-02-09T10:08:56.401Z,38.79
2024-02-09T10:11:28.158Z,38.23
2024-02-09T10:13:58.848Z,38.81
2024-02-09T10:16:29.619Z,38.66
2024-02-09T10:19:03.392Z,38.64
2024-02-09T10:21:37.807Z,38.60
2024-02-09T10:24:13.223Z,38.45
2024-02-09T10:26:44.570Z,38.57
2024-02-09T10:29:16.431Z,38.46
2024-02-09T10:31:49.082Z,38.29
2024-02-09T10:34:22.516Z,38.18
2024-02-09T10:36:53.542Z,37.49
2024-02-09T10:39:24.227Z,35.03
2024-02-09T10:41:57.713Z,35.12
2024-02-09T10:44:34.116Z,34.80
2024-02-09T10:47:05.826Z,34.79
2024-02-09T10:49:42.627Z,34.94
2024-02-09T10:52:14.248Z,34.24
2024-02-09T10:54:52.290Z,33.26
2024-02-09T10:57:24.541Z,33.29
2024-02-09T10:59:55.331Z,33.20
2024-02-09T11:02:26.743Z,32.70
2024-02-09T11:05:00.948Z,33.00
2024-02-09T11:07:36.395Z,32.80
2024-02-09T11:10:10.010Z,32.76
2024-02-09T11:12:40.637Z,32.66
2024-02-09T11:15:19.901Z,31.73
2024-02-09T11:17:51.649Z,31.84
2024-02-09T11:20:25.292Z,32.66
2024-02-09T11:23:01.790Z,32.45
2024-02-09T11:25:37.168Z,32.86
2024-02-09T11:28:11.123Z,31.85
2024-02-09T11:30:42.950Z,31.53
2024-02-09T11:33:16.388Z,30.56
2024-02-09T11:35:54.169Z,29.40
2024-02-09T11:38:25.578Z,30.38
2024-02-09T11:40:58.683Z,30.48
2024-02-09T11:43:30.857Z,30.77
2024-02-09T11:46:04.564Z,30.24
2024-02-09T11:48:35.349Z,30.46
2024-02-09T11:51:08.966Z,30.88
2024-02-09T11:53:39.677Z,30.66
2024-02-09T11:56:11.018Z,30.86
2024-02-09T11:58:45.295Z,30.43
2024-02-09T12:01:16.066Z,30.91
2024-02-09T12:03:46.973Z,30.67
2024-02-09T12:06:22.966Z,30.79
2024-02-09T12:08:55.083Z,31.27
2024-02-09T12:11:25.723Z,31.70
2024-02-09T12:13:56.564Z,30.63
2024-02-09T12:16:27.319Z,30.71
2024-02-09T12:18:59.827Z,30.83
2024-02-09T12:21:33.389Z,30.33
2024-02-09T12:24:04.208Z,29.60
2024-02-09T12:26:39.623Z,29.86
2024-02-09T12:29:17.073Z,29.68
2024-02-09T12:31:52.257Z,29.83
2024-02-09T12:34:23.103Z,29.72
2024-02-09T12:37:00.912Z,29.93
2024-02-09T12:39:31.831Z,30.14
2024-02-09T12:42:03.725Z,29.58
2024-02-09T12:44:34.688Z,29.42
2024-02-09T12:47:06.975Z,29.33
2024-02-09T12:49:38.844Z,29.23
2024-02-09T12:52:15.941Z,29.16
2024-02-09T12:54:46.845Z,29.08
2024-02-09T12:57:17.674Z,29.36
2024-02-09T12:59:48.309Z,29.14
2024-02-09T13:02:21.578Z,28.89
2024-02-09T13:04:52.424Z,29.11
2024-02-09T13:07:25.763Z,28.99
2024-02-09T13:09:56.895Z,29.01
2024-02-09T13:12:30.200Z,29.46
2024-02-09T13:15:03.213Z,29.02
2024-02-09T13:17:36.885Z,28.66
2024-02-09T13:20:10.740Z,28.87
2024-02-09T13:22:44.214Z,28.54
2024-02-09T13:25:17.931Z,28.64
2024-02-09T13:27:51.509Z,27.92
2024-02-09T13:30:22.176Z,28.84
2024-02-09T13:32:52.985Z,29.02
2024-02-09T13:39:00.133Z,29.03
2024-02-09T13:41:35.353Z,29.36
2024-02-09T13:44:06.788Z,28.79
2024-02-09T13:46:37.513Z,28.91
2024-02-09T13:49:08.316Z,28.80
2024-02-09T13:51:39.206Z,28.56
2024-02-09T13:57:19.845Z,28.47
2024-02-09T13:59:51.400Z,28.34
2024-02-09T14:02:22.370Z,28.18
2024-02-09T14:04:53.154Z,28.29
2024-02-09T14:07:24.188Z,28.28
2024-02-09T14:09:56.862Z,28.50
2024-02-09T14:12:30.102Z,28.68
2024-02-09T14:15:02.680Z,29.21
2024-02-09T14:17:39.570Z,29.03
2024-02-09T14:20:11.704Z,29.09
2024-02-09T14:22:43.115Z,29.59
2024-02-09T14:25:14.632Z,29.53
2024-02-09T14:27:48.227Z,29.42
2024-02-09T14:30:19.885Z,29.50
2024-02-09T14:32:50.569Z,29.55
2024-02-09T14:35:21.541Z,30.39
2024-02-09T14:37:52.624Z,31.31
2024-02-09T14:40:24.096Z,31.78
2024-02-09T14:42:57.489Z,32.84
2024-02-09T14:45:28.777Z,33.42
2024-02-09T14:47:59.867Z,33.36
2024-02-09T14:50:31.083Z,34.06
2024-02-09T14:53:01.702Z,34.24
2024-02-09T14:55:32.498Z,34.93
2024-02-09T14:58:05.902Z,34.99
2024-02-09T15:00:38.035Z,35.23
2024-02-09T15:03:09.050Z,35.51
2024-02-09T15:05:41.882Z,35.88
2024-02-09T15:08:14.229Z,36.10
2024-02-09T15:10:46.560Z,36.32
2024-02-09T15:13:19.936Z,36.57
2024-02-09T15:15:51.287Z,36.79
2024-02-09T15:18:22.369Z,37.00
2024-02-09T15:20:53.128Z,36.86
2024-02-09T15:23:26.430Z,37.28
2024-02-09T15:25:57.145Z,37.45
2024-02-09T15:28:30.482Z,37.47
2024-02-09T15:31:01.611Z,37.72
2024-02-09T15:33:33.571Z,37.83
2024-02-09T15:36:04.484Z,38.14
2024-02-09T15:38:35.470Z,38.26
2024-02-09T15:41:06.562Z,38.08
2024-02-09T15:43:39.972Z,38.26
2024-02-09T15:46:17.537Z,38.36
2024-02-09T15:48:51.968Z,38.86
2024-02-09T15:51:24.859Z,38.93
2024-02-09T15:53:58.695Z,38.91
2024-02-09T15:56:34.130Z,39.22
2024-02-09T15:59:09.738Z,39.51
2024-02-09T16:01:41.764Z,39.63
2024-02-09T16:04:13.158Z,40.09
2024-02-09T16:06:44.236Z,39.97
2024-02-09T16:09:14.865Z,40.26
2024-02-09T16:11:47.854Z,40.63
2024-02-09T16:14:21.142Z,40.83
2024-02-09T16:16:51.775Z,41.02
2024-02-09T16:19:24.361Z,41.13
2024-02-09T16:21:56.295Z,41.30
2024-02-09T16:24:26.933Z,41.46
2024-02-09T16:26:57.603Z,41.52
2024-02-09T16:29:30.809Z,41.99
2024-02-09T16:32:01.505Z,42.31
2024-02-09T16:34:32.484Z,42.42
2024-02-09T16:37:06.268Z,42.66
2024-02-09T16:39:37.720Z,42.90
2024-02-09T16:42:08.702Z,43.17
2024-02-09T16:44:42.517Z,43.61
2024-02-09T16:47:14.290Z,44.06
2024-02-09T16:49:45.642Z,44.16
2024-02-09T16:52:16.583Z,48.36
2024-02-09T16:54:50.656Z,51.97
2024-02-09T16:57:24.304Z,53.34
2024-02-09T16:59:58.209Z,55.92
2024-02-09T17:02:29.477Z,58.49
2024-02-09T17:05:00.969Z,60.93
2024-02-09T17:07:34.527Z,61.97
2024-02-09T17:10:06.177Z,63.19
2024-02-09T17:12:40.533Z,64.50
2024-02-09T17:15:17.420Z,64.55
2024-02-09T17:17:48.931Z,63.38
2024-02-09T17:20:20.450Z,61.97
2024-02-09T17:22:52.813Z,61.26
2024-02-09T17:25:24.245Z,60.25
2024-02-09T17:27:55.835Z,60.20
2024-02-09T17:30:29.803Z,60.81
2024-02-09T17:33:01.518Z,61.12
2024-02-09T17:35:32.683Z,61.26
2024-02-09T17:38:03.896Z,61.76
2024-02-09T17:40:35.101Z,62.22
2024-02-09T17:43:06.051Z,61.59
2024-02-09T18:28:42.363Z,52.46
2024-02-09T18:31:14.902Z,52.20
2024-02-09T18:33:47.862Z,52.09
2024-02-09T18:36:18.835Z,52.05
2024-02-09T18:38:50.280Z,51.94
2024-02-09T18:41:21.180Z,51.75
2024-02-09T18:43:54.838Z,51.67
2024-02-09T18:58:48.048Z,51.67
2024-02-09T19:01:39.701Z,51.68
2024-02-09T19:04:22.293Z,51.96
2024-02-09T19:06:57.934Z,51.64
2024-02-09T19:30:18.223Z,59.63
2024-02-09T19:32:49.148Z,59.78
2024-02-09T19:35:20.304Z,60.24
2024-02-09T19:37:52.206Z,60.04
2024-02-09T19:40:23.581Z,59.17
2024-02-09T19:42:54.722Z,58.74
2024-02-09T19:45:28.457Z,57.41
2024-02-09T19:48:01.460Z,57.31
2024-02-09T19:50:32.314Z,57.33
2024-02-09T19:53:03.104Z,55.92
2024-02-09T19:55:39.538Z,56.13
2024-02-09T19:58:12.279Z,56.34
2024-02-09T20:00:45.761Z,55.79
2024-02-09T20:03:16.918Z,55.96
2024-02-09T20:05:50.778Z,56.49
2024-02-09T20:08:22.164Z,55.94
2024-02-09T20:10:54.245Z,55.78
2024-02-09T20:13:25.418Z,55.23
2024-02-09T20:16:04.611Z,54.73
2024-02-09T20:18:36.209Z,56.05
2024-02-09T20:21:07.272Z,57.35
2024-02-09T20:23:38.830Z,57.62
2024-02-09T20:26:09.742Z,57.95
2024-02-09T20:28:40.692Z,57.38
2024-02-09T20:31:16.179Z,57.06
2024-02-09T20:33:48.320Z,57.17
2024-02-09T20:36:19.478Z,56.94
2024-02-09T20:38:50.359Z,57.79
2024-02-09T20:41:21.302Z,59.58
2024-02-09T20:43:52.448Z,58.96
2024-02-09T20:46:27.141Z,59.99
2024-02-09T20:48:58.012Z,58.88
2024-02-09T20:51:28.866Z,58.09
2024-02-09T20:54:03.235Z,58.75
2024-02-09T20:56:34.286Z,62.07
2024-02-09T20:59:07.357Z,60.95
2024-02-09T21:01:42.172Z,61.25
2024-02-09T21:04:13.139Z,61.31
2024-02-09T21:06:44.155Z,60.56
2024-02-09T21:12:20.914Z,63.15
2024-02-09T21:14:51.807Z,62.98
2024-02-09T21:17:26.744Z,62.74
2024-02-09T21:19:57.734Z,61.87
2024-02-09T21:22:28.627Z,60.98
2024-02-09T21:24:59.823Z,61.41
2024-02-09T21:27:33.835Z,63.28
2024-02-09T21:30:08.878Z,62.36
2024-02-09T21:32:42.357Z,61.70
2024-02-09T21:35:14.851Z,61.32
2024-02-09T21:37:46.321Z,60.90
2024-02-09T21:40:17.405Z,60.74
2024-02-09T21:42:50.408Z,60.05
2024-02-09T21:45:23.399Z,60.28
2024-02-09T21:47:57.156Z,63.33
2024-02-09T21:50:28.006Z,62.30
2024-02-09T21:52:59.781Z,61.90
2024-02-09T21:55:30.940Z,61.87
2024-02-09T21:58:02.833Z,62.56
2024-02-09T22:00:35.253Z,61.92
2024-02-09T22:03:08.929Z,63.28
2024-02-09T22:05:40.325Z,62.32
2024-02-09T22:08:11.350Z,61.71
2024-02-09T22:10:42.760Z,61.42
2024-02-09T22:13:13.562Z,62.57
2024-02-09T22:15:46.229Z,63.25
2024-02-09T22:18:19.675Z,62.87
2024-02-09T22:20:59.842Z,62.44
2024-02-09T22:23:35.617Z,61.53
2024-02-09T22:26:08.632Z,61.21
2024-02-09T22:28:40.284Z,60.71
2024-02-09T22:31:15.636Z,60.15
2024-02-09T22:33:49.131Z,61.43
2024-02-09T22:36:20.800Z,62.85
2024-02-09T22:38:51.593Z,62.41
2024-02-09T22:41:22.380Z,62.04
2024-02-09T22:43:55.136Z,63.16
2024-02-09T22:46:27.356Z,62.92
2024-02-09T22:49:02.021Z,63.11
2024-02-09T22:51:32.770Z,62.62
2024-02-09T22:54:03.945Z,61.78
2024-02-09T22:56:35.240Z,62.40
2024-02-09T22:59:06.241Z,61.55
2024-02-09T23:01:37.079Z,61.19
2024-02-09T23:04:10.644Z,62.26
2024-02-09T23:06:41.421Z,63.87
2024-02-09T23:09:12.177Z,63.43
2024-02-09T23:11:43.049Z,62.10
2024-02-09T23:14:20.362Z,62.95
2024-02-09T23:16:54.747Z,63.82
2024-02-09T23:19:29.518Z,63.32
2024-02-09T23:22:02.371Z,63.01
2024-02-09T23:24:33.037Z,62.48
2024-02-09T23:27:07.048Z,61.62
2024-02-09T23:29:40.869Z,62.50
2024-02-09T23:35:32.568Z,64.40
2024-02-09T23:38:04.822Z,62.50
2024-02-09T23:40:35.730Z,61.53
2024-02-09T23:43:06.988Z,63.78
2024-02-09T23:45:39.659Z,66.89
2024-02-09T23:48:11.193Z,70.20
2024-02-09T23:50:45.003Z,71.75
2024-02-09T23:53:17.939Z,72.29
2024-02-09T23:55:52.677Z,72.19
2024-02-09T23:58:23.599Z,72.42
